Time;durP1;ratioP1;P1;durP2;ratioP2;P2;SDS_P1;SDS_P2;PMS_P1;PMS_P2;Temp;Humidity;BMP_temperature;BMP_pressure;BME280_temperature;BME280_humidity;BME280_pressure;Samples;Min_cycle;Max_cycle;Signal;HPM_P1;HPM_P2
2022/12/16 00:03:58;;;;;;;107.63;45.73;;;;;;;-2.87;100.00;98348.17;4243463;81;21058;-90
2022/12/16 00:16:32;;;;;;;103.90;43.33;;;;;;;-2.88;100.00;98355.17;4183480;83;21053;-90
2022/12/16 00:22:34;;;;;;;102.03;45.23;;;;;;;-2.88;100.00;98359.19;4228759;81;21090;-90
2022/12/16 00:28:39;;;;;;;102.47;43.80;;;;;;;-2.86;100.00;98363.13;4240351;81;21010;-90
2022/12/16 00:34:45;;;;;;;94.73;43.20;;;;;;;-2.88;100.00;98347.91;4244910;82;21026;-91
2022/12/16 00:40:46;;;;;;;111.43;45.70;;;;;;;-2.88;100.00;98341.21;4292632;81;21064;-91
2022/12/16 00:46:49;;;;;;;102.43;41.43;;;;;;;-2.89;100.00;98347.67;4270872;82;21039;-90
2022/12/16 00:52:55;;;;;;;110.73;43.73;;;;;;;-2.89;100.00;98340.98;4284023;81;21083;-90
2022/12/16 00:58:56;;;;;;;110.53;45.50;;;;;;;-2.91;100.00;98345.84;4278844;81;21903;-90
2022/12/16 01:04:57;;;;;;;107.93;44.43;;;;;;;-2.91;100.00;98331.11;4286228;81;21056;-90
2022/12/16 01:11:00;;;;;;;107.43;45.97;;;;;;;-2.90;100.00;98315.84;4262758;81;21097;-91
2022/12/16 01:17:01;;;;;;;106.57;43.00;;;;;;;-2.89;100.00;98310.17;4283384;81;21033;-91
2022/12/16 01:23:05;;;;;;;111.20;46.70;;;;;;;-2.86;100.00;98316.80;4206708;83;21073;-91
2022/12/16 01:29:08;;;;;;;106.53;45.77;;;;;;;-2.85;100.00;98288.38;4203110;83;21123;-91
2022/12/16 01:35:19;;;;;;;112.43;46.07;;;;;;;-2.83;100.00;98292.88;4205049;83;21022;-91
2022/12/16 01:41:20;;;;;;;117.83;48.77;;;;;;;-2.87;100.00;98275.05;4294473;80;21032;-90
2022/12/16 01:47:31;;;;;;;121.37;50.10;;;;;;;-2.83;100.00;98266.09;4309590;80;21063;-88
2022/12/16 01:53:34;;;;;;;116.40;48.43;;;;;;;-2.84;100.00;98244.44;4315744;80;21059;-91
2022/12/16 01:59:41;;;;;;;107.93;46.40;;;;;;;-2.84;100.00;98239.08;4295848;81;21556;-91
2022/12/16 02:05:46;;;;;;;107.93;46.97;;;;;;;-2.81;100.00;98243.02;4309247;81;20972;-90
2022/12/16 02:12:11;;;;;;;110.90;47.97;;;;;;;-2.80;100.00;98251.32;4280478;81;21040;-90
2022/12/16 02:18:27;;;;;;;82.10;36.43;;;;;;;-2.84;100.00;98232.39;4303227;80;21028;-91
2022/12/16 02:25:05;;;;;;;121.17;49.07;;;;;;;-2.84;100.00;98228.91;4345035;80;21087;-91
2022/12/16 02:31:24;;;;;;;122.92;49.38;;;;;;;-2.84;100.00;98242.30;4324302;81;21375;-91
2022/12/16 02:38:25;;;;;;;127.87;50.23;;;;;;;-2.83;100.00;98227.80;4155143;83;21551;-91
2022/12/16 02:44:49;;;;;;;118.23;49.50;;;;;;;-2.84;100.00;98214.18;4283586;81;21126;-90
2022/12/16 02:50:52;;;;;;;117.13;47.77;;;;;;;-2.84;100.00;98189.53;4326648;81;21051;-92
2022/12/16 02:57:26;;;;;;;105.90;45.33;;;;;;;-2.86;100.00;98167.61;4307343;80;21051;-90
2022/12/16 03:03:34;;;;;;;104.47;44.97;;;;;;;-2.85;100.00;98165.73;4324849;80;21000;-91
2022/12/16 03:09:40;;;;;;;108.10;44.07;;;;;;;-2.84;100.00;98158.73;4322573;80;21067;-91
2022/12/16 03:15:45;;;;;;;105.43;45.63;;;;;;;-2.82;100.00;98165.12;4331163;80;21063;-90
2022/12/16 03:22:04;;;;;;;113.70;46.15;;;;;;;-2.81;100.00;98169.37;4350918;79;21094;-90
2022/12/16 03:28:17;;;;;;;100.43;43.07;;;;;;;-2.79;100.00;98154.59;4339807;80;21066;-90
2022/12/16 03:34:43;;;;;;;93.23;41.43;;;;;;;-2.78;100.00;98150.80;4355288;80;21052;-90
2022/12/16 03:40:45;;;;;;;95.07;43.07;;;;;;;-2.78;100.00;98124.02;4333819;80;20973;-89
2022/12/16 03:47:00;;;;;;;102.93;46.10;;;;;;;-2.79;100.00;98110.39;4341335;80;21067;-90
2022/12/16 03:53:07;;;;;;;95.57;42.57;;;;;;;-2.80;100.00;98098.08;4277406;81;21070;-89
2022/12/16 03:59:09;;;;;;;97.82;42.43;;;;;;;-2.81;100.00;98079.09;4295232;81;21093;-89
2022/12/16 04:05:14;;;;;;;102.83;45.57;;;;;;;-2.81;100.00;98058.21;4293241;81;21119;-90
2022/12/16 04:30:20;;;;;;;97.43;42.50;;;;;;;-2.73;100.00;98026.10;4280182;81;22037;-88
